createdAt,value
2018-05-25T00:01:04.799Z,98873.66
2018-05-25T00:03:33.503Z,98874.08
2018-05-25T00:06:02.247Z,98876.70
2018-05-25T00:08:31.131Z,98878.70
2018-05-25T00:10:59.925Z,98878.80
2018-05-25T00:13:28.689Z,98876.52
2018-05-25T00:15:57.414Z,98879.63
2018-05-25T00:18:26.885Z,98876.16
2018-05-25T00:20:55.624Z,98870.64
2018-05-25T00:23:24.395Z,98871.35
2018-05-25T00:25:53.207Z,98871.39
2018-05-25T00:28:22.821Z,98870.38
2018-05-25T00:30:52.320Z,98871.39
2018-05-25T00:33:21.650Z,98870.58
2018-05-25T00:35:50.949Z,98869.68
2018-05-25T00:38:19.672Z,98863.83
2018-05-25T00:40:49.234Z,98862.02
2018-05-25T00:43:17.956Z,98861.53
2018-05-25T00:45:46.540Z,98860.29
2018-05-25T00:48:15.168Z,98864.46
2018-05-25T00:50:43.784Z,98861.54
2018-05-25T00:53:12.514Z,98864.72
2018-05-25T00:55:41.267Z,98864.28
2018-05-25T00:58:10.309Z,98863.78
2018-05-25T01:00:39.891Z,98871.19
2018-05-25T01:03:09.437Z,98868.70
2018-05-25T01:05:38.161Z,98871.06
2018-05-25T01:08:06.965Z,98862.32
2018-05-25T01:10:35.485Z,98855.94
2018-05-25T01:13:04.215Z,98849.41
2018-05-25T01:15:33.712Z,98857.69
2018-05-25T01:18:02.234Z,98857.66
2018-05-25T01:20:31.033Z,98855.73
2018-05-25T01:22:59.758Z,98859.34
2018-05-25T01:25:28.547Z,98861.47
2018-05-25T01:27:57.037Z,98864.46
2018-05-25T01:30:25.964Z,98866.11
2018-05-25T01:32:55.443Z,98864.70
2018-05-25T01:35:25.378Z,98866.13
2018-05-25T01:37:54.720Z,98868.30
2018-05-25T01:40:23.540Z,98864.80
2018-05-25T01:42:52.660Z,98860.66
2018-05-25T01:45:21.457Z,98856.86
2018-05-25T01:47:50.106Z,98858.91
2018-05-25T01:50:18.806Z,98858.94
2018-05-25T01:52:47.392Z,98861.34
2018-05-25T01:55:16.106Z,98866.13
2018-05-25T01:57:44.575Z,98864.67
2018-05-25T02:00:14.092Z,98855.80
2018-05-25T02:02:43.257Z,98861.87
2018-05-25T02:05:13.145Z,98858.64
2018-05-25T02:07:42.664Z,98859.59
2018-05-25T02:10:11.541Z,98853.77
2018-05-25T02:12:40.294Z,98852.59
2018-05-25T02:15:08.916Z,98851.28
2018-05-25T02:17:39.008Z,98852.59
2018-05-25T02:20:07.573Z,98850.30
2018-05-25T02:22:36.066Z,98849.87
2018-05-25T02:25:06.025Z,98855.78
2018-05-25T02:27:34.602Z,98846.11
2018-05-25T02:30:04.250Z,98851.61
2018-05-25T02:32:33.431Z,98851.63
2018-05-25T02:35:03.591Z,98849.47
2018-05-25T02:37:32.521Z,98849.84
2018-05-25T02:40:01.445Z,98850.86
2018-05-25T02:42:30.252Z,98845.60
2018-05-25T02:44:59.069Z,98842.37
2018-05-25T02:47:27.606Z,98838.70
2018-05-25T02:49:56.382Z,98838.75
2018-05-25T02:52:25.083Z,98844.61
2018-05-25T02:54:53.785Z,98843.15
2018-05-25T02:57:22.477Z,98841.34
2018-05-25T02:59:51.690Z,98838.70
2018-05-25T03:02:21.984Z,98834.58
2018-05-25T03:04:51.387Z,98835.84
2018-05-25T03:07:21.123Z,98833.27
2018-05-25T03:09:49.806Z,98836.54
2018-05-25T03:12:18.571Z,98837.80
2018-05-25T03:14:47.060Z,98846.84
2018-05-25T03:17:15.850Z,98840.88
2018-05-25T03:19:45.368Z,98847.08
2018-05-25T03:22:13.999Z,98839.80
2018-05-25T03:24:42.534Z,98848.09
2018-05-25T03:27:11.080Z,98848.56
2018-05-25T03:29:39.764Z,98854.38
2018-05-25T03:32:09.111Z,98850.86
2018-05-25T03:34:37.789Z,98850.91
2018-05-25T03:37:07.823Z,98858.09
2018-05-25T03:39:38.119Z,98855.17
2018-05-25T03:42:06.793Z,98858.30
2018-05-25T03:44:36.285Z,98858.04
2018-05-25T03:47:04.811Z,98859.75
2018-05-25T03:49:37.696Z,98862.39
2018-05-25T03:52:06.448Z,98867.63
2018-05-25T03:54:35.185Z,98868.12
2018-05-25T03:57:03.901Z,98865.67
2018-05-25T03:59:50.479Z,98867.78
2018-05-25T04:02:19.234Z,98869.09
2018-05-25T04:04:47.880Z,98860.24
2018-05-25T04:07:16.480Z,98865.77
2018-05-25T04:09:45.139Z,98859.86
2018-05-25T04:12:13.790Z,98861.45
2018-05-25T04:14:42.513Z,98863.48
2018-05-25T04:17:11.104Z,98856.45
2018-05-25T04:19:39.940Z,98860.20
2018-05-25T04:22:09.024Z,98864.58
2018-05-25T04:24:39.383Z,98859.61
2018-05-25T04:27:08.255Z,98863.05
2018-05-25T04:29:37.016Z,98864.70
2018-05-25T04:32:05.497Z,98856.16
2018-05-25T04:34:34.168Z,98863.95
2018-05-25T04:37:02.851Z,98861.58
2018-05-25T04:39:31.395Z,98862.70
2018-05-25T04:42:00.147Z,98864.06
2018-05-25T04:44:28.846Z,98858.67
2018-05-25T04:46:57.658Z,98862.46
2018-05-25T04:49:26.445Z,98860.92
2018-05-25T04:51:55.924Z,98861.05
2018-05-25T04:54:24.805Z,98864.70
2018-05-25T04:56:54.022Z,98860.22
2018-05-25T04:59:23.305Z,98866.23
2018-05-25T05:01:52.644Z,98862.36
2018-05-25T05:04:22.118Z,98861.04
2018-05-25T05:06:50.811Z,98864.72
2018-05-25T05:09:19.654Z,98862.74
2018-05-25T05:11:48.435Z,98858.94
2018-05-25T05:14:17.216Z,98861.25
2018-05-25T05:16:46.546Z,98856.97
2018-05-25T05:19:15.468Z,98854.34
2018-05-25T05:21:45.760Z,98855.53
2018-05-25T05:24:14.736Z,98854.18
2018-05-25T05:26:44.744Z,98850.54
2018-05-25T05:29:14.514Z,98854.20
2018-05-25T05:31:43.997Z,98852.38
2018-05-25T05:34:13.557Z,98851.69
2018-05-25T05:36:42.568Z,98856.97
2018-05-25T05:39:11.385Z,98852.38
2018-05-25T05:41:40.160Z,98855.33
2018-05-25T05:44:09.204Z,98856.02
2018-05-25T05:46:38.711Z,98859.63
2018-05-25T05:49:07.533Z,98853.78
2018-05-25T05:51:36.165Z,98860.57
2018-05-25T05:54:05.103Z,98854.19
2018-05-25T05:56:34.432Z,98859.48
2018-05-25T05:59:03.809Z,98854.42
2018-05-25T06:01:32.713Z,98859.23
2018-05-25T06:04:01.343Z,98860.45
2018-05-25T06:06:30.233Z,98858.03
2018-05-25T06:08:59.041Z,98869.68
2018-05-25T06:11:27.646Z,98869.62
2018-05-25T06:13:56.344Z,98867.08
2018-05-25T06:16:25.111Z,98868.69
2018-05-25T06:18:55.379Z,98868.16
2018-05-25T06:21:25.158Z,98867.80
2018-05-25T06:23:53.832Z,98875.67
2018-05-25T06:26:23.288Z,98872.59
2018-05-25T06:28:52.676Z,98878.52
2018-05-25T06:31:22.086Z,98881.56
2018-05-25T06:33:51.494Z,98880.13
2018-05-25T06:36:21.068Z,98880.89
2018-05-25T06:38:50.580Z,98878.59
2018-05-25T06:41:19.313Z,98877.86
2018-05-25T06:43:47.972Z,98874.75
2018-05-25T06:46:17.920Z,98876.82
2018-05-25T06:48:47.677Z,98873.64
2018-05-25T06:51:16.436Z,98875.48
2018-05-25T06:53:45.191Z,98874.98
2018-05-25T06:56:14.776Z,98867.98
2018-05-25T06:58:43.964Z,98875.01
2018-05-25T07:01:12.651Z,98877.30
2018-05-25T07:03:41.912Z,98863.34
2018-05-25T07:06:10.715Z,98870.78
2018-05-25T07:08:41.508Z,98870.09
2018-05-25T07:11:11.097Z,98865.41
2018-05-25T07:13:39.835Z,98864.80
2018-05-25T07:16:09.392Z,98864.39
2018-05-25T07:18:38.099Z,98861.95
2018-05-25T07:21:07.015Z,98856.03
2018-05-25T07:23:35.732Z,98864.03
2018-05-25T07:26:05.392Z,98859.95
2018-05-25T07:28:34.772Z,98859.52
2018-05-25T07:31:03.421Z,98853.77
2018-05-25T07:33:32.608Z,98856.05
2018-05-25T07:36:01.316Z,98850.65
2018-05-25T07:38:30.848Z,98843.80
2018-05-25T07:40:59.649Z,98852.42
2018-05-25T07:43:29.735Z,98848.61
2018-05-25T07:45:59.063Z,98848.55
2018-05-25T07:48:29.187Z,98850.10
2018-05-25T07:50:57.844Z,98849.87
2018-05-25T07:53:26.540Z,98846.36
2018-05-25T07:55:55.830Z,98845.00
2018-05-25T07:58:26.895Z,98842.13
2018-05-25T08:00:56.440Z,98842.41
2018-05-25T08:03:25.777Z,98837.47
2018-05-25T08:05:54.851Z,98835.89
2018-05-25T08:08:24.403Z,98831.25
2018-05-25T08:10:54.163Z,98837.30
2018-05-25T08:13:23.165Z,98831.58
2018-05-25T08:15:51.992Z,98834.45
2018-05-25T08:18:20.609Z,98835.66
2018-05-25T08:20:50.072Z,98833.36
2018-05-25T08:23:18.838Z,98837.65
2018-05-25T08:25:48.506Z,98836.87
2018-05-25T08:28:18.411Z,98842.63
2018-05-25T08:30:47.316Z,98838.75
2018-05-25T08:33:16.111Z,98841.37
2018-05-25T08:35:45.436Z,98843.66
2018-05-25T08:38:14.126Z,98839.36
2018-05-25T08:40:43.678Z,98838.52
2018-05-25T08:43:12.334Z,98842.25
2018-05-25T08:45:41.174Z,98841.22
2018-05-25T08:48:10.029Z,98837.60
2018-05-25T08:50:38.805Z,98839.80
2018-05-25T08:53:08.226Z,98843.84
2018-05-25T08:55:37.632Z,98840.95
2018-05-25T08:58:08.254Z,98838.42
2018-05-25T09:00:37.268Z,98836.06
2018-05-25T09:03:06.097Z,98834.52
2018-05-25T09:05:37.027Z,98830.28
2018-05-25T09:08:06.404Z,98829.08
2018-05-25T09:10:35.862Z,98836.20
2018-05-25T09:13:05.568Z,98837.00
2018-05-25T09:15:35.940Z,98835.52
2018-05-25T09:18:04.732Z,98838.88
2018-05-25T09:20:33.328Z,98833.38
2018-05-25T09:23:02.765Z,98827.47
2018-05-25T09:25:32.684Z,98833.17
2018-05-25T09:28:02.131Z,98824.99
2018-05-25T09:30:30.825Z,98813.17
2018-05-25T09:32:59.546Z,98819.58
2018-05-25T09:35:29.081Z,98814.05
2018-05-25T09:37:57.940Z,98812.20
2018-05-25T09:40:27.492Z,98818.47
2018-05-25T09:42:56.208Z,98825.30
2018-05-25T09:45:25.185Z,98822.16
2018-05-25T09:47:54.509Z,98821.08
2018-05-25T09:50:24.219Z,98815.05
2018-05-25T09:52:52.922Z,98819.83
2018-05-25T09:55:22.717Z,98813.52
2018-05-25T09:57:58.102Z,98813.37
2018-05-25T10:00:26.755Z,98813.93
2018-05-25T10:02:55.288Z,98813.36
2018-05-25T10:05:24.083Z,98813.20
2018-05-25T10:07:52.585Z,98811.02
2018-05-25T10:10:22.074Z,98804.39
2018-05-25T10:12:50.718Z,98807.50
2018-05-25T10:15:19.843Z,98812.20
2018-05-25T10:17:49.104Z,98811.57
2018-05-25T10:20:17.909Z,98805.75
2018-05-25T10:22:46.986Z,98803.87
2018-05-25T10:25:16.523Z,98798.94
2018-05-25T10:27:45.425Z,98805.64
2018-05-25T10:30:14.246Z,98798.30
2018-05-25T10:32:42.843Z,98797.73
2018-05-25T10:35:11.580Z,98801.77
2018-05-25T10:37:40.318Z,98800.84
2018-05-25T10:40:09.942Z,98790.06
2018-05-25T10:42:39.289Z,98798.73
2018-05-25T10:45:08.733Z,98791.59
2018-05-25T10:47:37.436Z,98789.95
2018-05-25T10:50:06.260Z,98796.16
2018-05-25T10:52:35.444Z,98792.27
2018-05-25T10:55:05.938Z,98790.70
2018-05-25T10:57:35.646Z,98786.53
2018-05-25T11:00:04.457Z,98792.22
2018-05-25T11:02:33.162Z,98788.39
2018-05-25T11:05:02.598Z,98786.42
2018-05-25T11:07:31.063Z,98787.91
2018-05-25T11:10:00.536Z,98788.64
2018-05-25T11:12:30.028Z,98792.32
2018-05-25T11:14:58.646Z,98789.87
2018-05-25T11:17:27.256Z,98787.40
2018-05-25T11:19:56.040Z,98785.61
2018-05-25T11:22:25.490Z,98791.05
2018-05-25T11:24:54.890Z,98794.63
2018-05-25T11:27:24.109Z,98784.02
2018-05-25T11:29:53.669Z,98780.34
2018-05-25T11:32:22.346Z,98781.67
2018-05-25T11:34:51.889Z,98775.72
2018-05-25T11:37:20.817Z,98777.22
2018-05-25T11:39:49.521Z,98774.98
2018-05-25T11:42:18.271Z,98768.75
2018-05-25T11:44:48.065Z,98765.25
2018-05-25T11:47:16.566Z,98771.89
2018-05-25T11:49:45.275Z,98764.99
2018-05-25T11:52:14.076Z,98765.34
2018-05-25T11:54:43.197Z,98761.80
2018-05-25T11:57:13.299Z,98765.84
2018-05-25T11:59:43.418Z,98763.41
2018-05-25T12:02:12.181Z,98757.88
2018-05-25T12:04:41.211Z,98758.36
2018-05-25T12:07:09.851Z,98763.35
2018-05-25T12:09:38.628Z,98750.56
2018-05-25T12:12:07.251Z,98755.55
2018-05-25T12:14:35.818Z,98747.13
2018-05-25T12:17:04.682Z,98748.34
2018-05-25T12:19:33.578Z,98746.31
2018-05-25T12:22:02.812Z,98743.30
2018-05-25T12:24:31.502Z,98742.39
2018-05-25T12:27:00.508Z,98746.86
2018-05-25T12:29:30.078Z,98745.37
2018-05-25T12:31:59.481Z,98748.64
2018-05-25T12:34:28.535Z,98743.08
2018-05-25T12:36:58.196Z,98741.70
2018-05-25T12:39:27.722Z,98740.95
2018-05-25T12:41:56.535Z,98736.66
2018-05-25T12:44:25.209Z,98735.27
2018-05-25T12:46:54.817Z,98726.89
2018-05-25T12:49:24.397Z,98723.61
2018-05-25T12:51:54.216Z,98720.89
2018-05-25T12:54:23.742Z,98718.75
2018-05-25T12:56:52.700Z,98719.65
2018-05-25T12:59:21.971Z,98712.12
2018-05-25T13:01:51.433Z,98711.64
2018-05-25T13:04:20.648Z,98718.61
2018-05-25T13:06:49.752Z,98715.98
2018-05-25T13:09:18.966Z,98707.48
2018-05-25T13:11:48.206Z,98704.57
2018-05-25T13:14:17.100Z,98705.28
2018-05-25T13:16:46.325Z,98702.83
2018-05-25T13:19:15.710Z,98699.62
2018-05-25T13:21:45.210Z,98698.78
2018-05-25T13:24:14.077Z,98706.19
2018-05-25T13:26:44.011Z,98704.13
2018-05-25T13:29:13.828Z,98699.98
2018-05-25T13:31:44.091Z,98697.16
2018-05-25T13:34:13.966Z,98690.00
2018-05-25T13:36:43.654Z,98692.41
2018-05-25T13:39:12.530Z,98696.20
2018-05-25T13:41:43.025Z,98694.53
2018-05-25T13:44:12.033Z,98690.70
2018-05-25T13:46:41.825Z,98687.70
2018-05-25T13:49:11.611Z,98683.23
2018-05-25T13:51:41.103Z,98685.27
2018-05-25T13:54:10.236Z,98677.73
2018-05-25T13:56:39.648Z,98681.25
2018-05-25T13:59:09.246Z,98674.72
2018-05-25T14:01:40.022Z,98671.52
2018-05-25T14:04:09.016Z,98678.52
2018-05-25T14:06:39.056Z,98673.61
2018-05-25T14:09:08.819Z,98669.65
2018-05-25T14:11:37.521Z,98672.45
2018-05-25T14:14:06.342Z,98666.36
2018-05-25T14:16:36.198Z,98670.64
2018-05-25T14:19:05.150Z,98667.56
2018-05-25T14:21:36.004Z,98663.74
2018-05-25T14:24:07.114Z,98666.23
2018-05-25T14:26:37.192Z,98650.15
2018-05-25T14:29:06.129Z,98653.02
2018-05-25T14:31:35.248Z,98658.01
2018-05-25T14:34:04.535Z,98658.41
2018-05-25T14:36:33.411Z,98657.42
2018-05-25T14:39:02.231Z,98654.73
2018-05-25T14:41:31.023Z,98651.73
2018-05-25T14:43:59.834Z,98645.73
2018-05-25T14:46:28.712Z,98648.41
2018-05-25T14:48:58.544Z,98647.36
2018-05-25T14:51:28.281Z,98647.77
2018-05-25T14:53:59.329Z,98649.97
2018-05-25T14:56:29.542Z,98648.95
2018-05-25T14:58:58.500Z,98658.16
2018-05-25T15:01:28.537Z,98655.61
2018-05-25T15:03:59.492Z,98650.70
2018-05-25T15:06:28.244Z,98652.48
2018-05-25T15:08:57.156Z,98653.46
2018-05-25T15:11:26.053Z,98648.92
2018-05-25T15:13:54.967Z,98655.25
2018-05-25T15:16:24.856Z,98650.83
2018-05-25T15:18:53.920Z,98640.73
2018-05-25T15:21:23.034Z,98642.84
2018-05-25T15:23:52.723Z,98640.87
2018-05-25T15:26:22.555Z,98648.28
2018-05-25T15:28:52.340Z,98646.32
2018-05-25T15:31:22.405Z,98645.92
2018-05-25T15:33:51.896Z,98649.62
2018-05-25T15:36:20.711Z,98650.64
2018-05-25T15:38:49.382Z,98651.37
2018-05-25T15:41:18.877Z,98645.77
2018-05-25T15:43:47.761Z,98649.47
2018-05-25T15:46:16.338Z,98650.47
2018-05-25T15:48:45.510Z,98652.16
2018-05-25T15:51:14.587Z,98652.09
2018-05-25T15:53:43.982Z,98659.05
2018-05-25T15:56:13.735Z,98651.12
2018-05-25T15:58:42.564Z,98649.71
2018-05-25T16:01:11.322Z,98641.45
2018-05-25T16:03:40.432Z,98640.72
2018-05-25T16:06:09.250Z,98630.98
2018-05-25T16:08:38.761Z,98636.81
2018-05-25T16:11:08.798Z,98642.23
2018-05-25T16:13:37.679Z,98639.67
2018-05-25T16:16:06.889Z,98645.23
2018-05-25T16:18:35.726Z,98642.07
2018-05-25T16:21:04.811Z,98643.67
2018-05-25T16:23:35.362Z,98651.20
2018-05-25T16:26:05.059Z,98648.25
2018-05-25T16:28:34.905Z,98651.62
2018-05-25T16:31:03.915Z,98650.84
2018-05-25T16:33:33.191Z,98647.36
2018-05-25T16:36:02.787Z,98650.69
2018-05-25T16:38:32.789Z,98661.13
2018-05-25T16:41:03.186Z,98660.77
2018-05-25T16:43:34.355Z,98660.92
2018-05-25T16:46:04.785Z,98657.17
2018-05-25T16:48:34.669Z,98658.70
2018-05-25T16:51:06.402Z,98662.63
2018-05-25T16:53:35.170Z,98655.10
2018-05-25T16:56:05.059Z,98658.40
2018-05-25T16:58:33.897Z,98657.33
2018-05-25T17:01:02.656Z,98658.63
2018-05-25T17:03:31.668Z,98664.79
2018-05-25T17:06:00.683Z,98660.28
2018-05-25T17:08:29.596Z,98665.64
2018-05-25T17:10:58.583Z,98665.95
2018-05-25T17:13:28.703Z,98668.77
2018-05-25T17:15:58.712Z,98674.57
2018-05-25T17:18:28.898Z,98676.33
2018-05-25T17:20:58.654Z,98671.73
2018-05-25T17:23:28.826Z,98677.25
2018-05-25T17:25:57.954Z,98681.86
2018-05-25T17:28:26.731Z,98682.66
2018-05-25T17:30:56.432Z,98685.08
2018-05-25T17:33:26.965Z,98687.41
2018-05-25T17:35:56.432Z,98692.84
2018-05-25T17:38:25.862Z,98696.00
2018-05-25T17:40:55.713Z,98700.64
2018-05-25T17:43:26.001Z,98706.16
2018-05-25T17:45:55.061Z,98703.63
2018-05-25T17:48:23.724Z,98702.38
2018-05-25T17:50:53.138Z,98707.56
2018-05-25T17:53:22.668Z,98707.97
2018-05-25T17:55:52.716Z,98709.40
2018-05-25T17:58:21.560Z,98703.75
2018-05-25T18:00:50.370Z,98709.00
2018-05-25T18:03:19.289Z,98707.83
2018-05-25T18:05:48.203Z,98708.46
2018-05-25T18:08:16.985Z,98710.19
2018-05-25T18:10:46.056Z,98706.84
2018-05-25T18:13:16.043Z,98713.88
2018-05-25T18:15:45.179Z,98708.47
2018-05-25T18:18:13.994Z,98713.34
2018-05-25T18:20:42.787Z,98718.92
2018-05-25T18:23:11.797Z,98726.68
2018-05-25T18:25:41.442Z,98728.89
2018-05-25T18:28:11.594Z,98732.15
2018-05-25T18:30:41.514Z,98731.61
2018-05-25T18:33:10.304Z,98737.99
2018-05-25T18:35:39.434Z,98736.73
2018-05-25T18:38:09.822Z,98745.97
2018-05-25T18:40:39.967Z,98748.52
2018-05-25T18:43:10.588Z,98748.14
2018-05-25T18:45:39.328Z,98751.67
2018-05-25T18:48:08.138Z,98758.91
2018-05-25T18:50:37.423Z,98760.89
2018-05-25T18:53:06.224Z,98772.65
2018-05-25T18:55:35.142Z,98776.95
2018-05-25T18:58:04.525Z,98782.98
2018-05-25T19:00:34.146Z,98789.95
2018-05-25T19:03:06.736Z,98792.08
2018-05-25T19:05:36.124Z,98790.80
2018-05-25T19:08:05.497Z,98798.95
2018-05-25T19:10:34.560Z,98803.80
2018-05-25T19:13:03.365Z,98803.97
2018-05-25T19:15:32.244Z,98812.77
2018-05-25T19:18:02.069Z,98811.56
2018-05-25T19:20:31.395Z,98818.48
2018-05-25T19:23:00.751Z,98817.70
2018-05-25T19:25:30.630Z,98821.84
2018-05-25T19:27:59.548Z,98825.81
2018-05-25T19:30:29.340Z,98827.94
2018-05-25T19:32:58.218Z,98832.80
2018-05-25T19:35:27.805Z,98838.34
2018-05-25T19:37:58.539Z,98843.25
2018-05-25T19:40:27.426Z,98852.80
2018-05-25T19:42:56.668Z,98849.50
2018-05-25T19:45:26.080Z,98857.20
2018-05-25T19:47:55.854Z,98860.17
2018-05-25T19:50:24.831Z,98866.52
2018-05-25T19:52:54.040Z,98877.20
2018-05-25T19:55:23.879Z,98880.82
2018-05-25T19:57:52.978Z,98878.58
2018-05-25T20:00:22.677Z,98877.17
2018-05-25T20:02:54.028Z,98876.75
2018-05-25T20:05:24.406Z,98876.03
2018-05-25T20:07:55.384Z,98879.56
2018-05-25T20:10:24.100Z,98875.03
2018-05-25T20:12:53.414Z,98877.66
2018-05-25T20:15:22.583Z,98878.14
2018-05-25T20:17:52.195Z,98877.15
2018-05-25T20:20:21.363Z,98874.05
2018-05-25T20:22:51.097Z,98880.63
2018-05-25T20:25:19.802Z,98881.88
2018-05-25T20:27:48.752Z,98892.97
2018-05-25T20:30:19.514Z,98889.47
2018-05-25T20:32:49.412Z,98889.34
2018-05-25T20:35:18.446Z,98890.44
2018-05-25T20:37:47.249Z,98886.66
2018-05-25T20:40:16.067Z,98894.81
2018-05-25T20:42:45.071Z,98894.42
2018-05-25T20:45:14.042Z,98892.83
2018-05-25T20:47:42.845Z,98898.61
2018-05-25T20:50:12.388Z,98901.70
2018-05-25T20:52:42.219Z,98897.31
2018-05-25T20:55:12.899Z,98900.92
2018-05-25T20:57:41.520Z,98906.35
2018-05-25T21:00:12.004Z,98906.58
2018-05-25T21:02:41.021Z,98913.23
2018-05-25T21:05:09.795Z,98911.58
2018-05-25T21:07:39.111Z,98911.41
2018-05-25T21:10:07.756Z,98910.47
2018-05-25T21:12:36.830Z,98907.56
2018-05-25T21:15:05.952Z,98912.44
2018-05-25T21:17:34.771Z,98908.88
2018-05-25T21:20:03.517Z,98919.77
2018-05-25T21:22:33.063Z,98923.60
2018-05-25T21:25:02.603Z,98924.59
2018-05-25T21:27:31.629Z,98915.70
2018-05-25T21:30:01.058Z,98921.57
2018-05-25T21:32:30.362Z,98925.17
2018-05-25T21:34:59.193Z,98929.53
2018-05-25T21:37:27.835Z,98932.53
2018-05-25T21:39:56.715Z,98932.06
2018-05-25T21:42:25.445Z,98928.40
2018-05-25T21:44:54.258Z,98929.31
2018-05-25T21:47:25.995Z,98936.19
2018-05-25T21:49:54.853Z,98931.47
2018-05-25T21:52:23.868Z,98932.28
2018-05-25T21:54:52.645Z,98933.61
2018-05-25T21:57:22.843Z,98934.86
2018-05-25T21:59:53.050Z,98935.84
2018-05-25T22:02:22.771Z,98936.36
2018-05-25T22:04:51.566Z,98943.06
2018-05-25T22:07:20.604Z,98948.55
2018-05-25T22:09:50.925Z,98949.34
2018-05-25T22:12:19.696Z,98947.70
2018-05-25T22:14:49.457Z,98940.97
2018-05-25T22:17:18.531Z,98939.64
2018-05-25T22:19:47.259Z,98940.40
2018-05-25T22:22:17.404Z,98945.36
2018-05-25T22:24:47.546Z,98949.26
2018-05-25T22:27:17.028Z,98949.98
2018-05-25T22:29:47.006Z,98948.56
2018-05-25T22:32:15.850Z,98950.66
2018-05-25T22:34:44.658Z,98948.67
2018-05-25T22:37:13.548Z,98946.67
2018-05-25T22:39:42.923Z,98945.84
2018-05-25T22:42:10.889Z,98955.72
2018-05-25T22:44:58.103Z,98945.77
2018-05-25T22:47:45.529Z,98943.70
2018-05-25T22:50:32.274Z,98943.70
2018-05-25T22:53:05.803Z,98951.14
2018-05-25T22:55:35.548Z,98951.97
2018-05-25T22:58:04.208Z,98953.97
2018-05-25T23:00:33.087Z,98954.43
2018-05-25T23:03:02.032Z,98948.67
2018-05-25T23:05:31.094Z,98954.94
2018-05-25T23:08:00.903Z,98951.98
2018-05-25T23:10:30.758Z,98952.41
2018-05-25T23:13:00.798Z,98953.48
2018-05-25T23:15:30.311Z,98948.34
2018-05-25T23:18:00.134Z,98948.47
2018-05-25T23:20:29.145Z,98950.55
2018-05-25T23:22:57.781Z,98950.50
2018-05-25T23:25:27.308Z,98952.06
2018-05-25T23:27:56.207Z,98948.56
2018-05-25T23:30:25.727Z,98947.19
2018-05-25T23:32:54.537Z,98959.36
2018-05-25T23:35:24.129Z,98962.66
2018-05-25T23:37:54.147Z,98952.78
2018-05-25T23:40:23.528Z,98962.64
2018-05-25T23:42:52.495Z,98962.39
2018-05-25T23:45:21.166Z,98956.97
2018-05-25T23:47:50.715Z,98958.23
2018-05-25T23:50:19.439Z,98959.72
2018-05-25T23:52:48.526Z,98954.17
2018-05-25T23:55:17.402Z,98953.56
2018-05-25T23:57:46.176Z,98954.13
